createdAt,value
2023-07-15T00:00:23.083Z,188.27
2023-07-15T00:01:23.065Z,189.03
2023-07-15T00:02:23.053Z,189.32
2023-07-15T00:03:23.096Z,189.44
2023-07-15T00:04:23.010Z,189.82
2023-07-15T00:05:23.013Z,191.16
2023-07-15T00:06:23.014Z,191.26
2023-07-15T00:07:23.010Z,195.02
2023-07-15T00:08:23.023Z,198.58
2023-07-15T00:09:23.003Z,198.08
2023-07-15T00:10:23.076Z,197.68
2023-07-15T00:11:22.991Z,193.13
2023-07-15T00:12:23.003Z,195.04
2023-07-15T00:13:23.003Z,194.31
2023-07-15T00:14:22.991Z,193.59
2023-07-15T00:15:22.980Z,193.76
2023-07-15T00:16:23.001Z,193.89
2023-07-15T00:17:22.995Z,193.81
2023-07-15T00:18:22.979Z,193.64
2023-07-15T00:19:22.960Z,191.06
2023-07-15T00:20:22.957Z,189.31
2023-07-15T00:21:22.959Z,188.96
2023-07-15T00:22:23.139Z,191.08
2023-07-15T00:23:22.961Z,187.95
2023-07-15T00:24:22.966Z,187.95
2023-07-15T00:25:22.938Z,188.05
2023-07-15T00:26:22.951Z,189.31
2023-07-15T00:27:22.938Z,187.08
2023-07-15T00:28:22.947Z,187.28
2023-07-15T00:29:22.935Z,187.67
2023-07-15T00:30:22.954Z,189.37
2023-07-15T00:31:22.965Z,192.78
2023-07-15T00:32:22.948Z,191.35
2023-07-15T00:33:22.947Z,191.41
2023-07-15T00:34:22.919Z,190.09
2023-07-15T00:35:22.921Z,191.64
2023-07-15T00:36:22.933Z,191.54
2023-07-15T00:37:22.931Z,191.34
2023-07-15T00:38:22.927Z,192.18
2023-07-15T00:39:22.932Z,192.71
2023-07-15T00:40:22.924Z,190.79
2023-07-15T00:41:22.927Z,190.84
2023-07-15T00:42:22.899Z,186.93
2023-07-15T00:43:22.936Z,188.92
2023-07-15T00:44:22.905Z,183.77
2023-07-15T00:45:22.895Z,185.92
2023-07-15T00:46:22.969Z,183.19
2023-07-15T00:47:23.279Z,183.06
2023-07-15T00:48:22.916Z,182.18
2023-07-15T00:49:22.959Z,182.71
2023-07-15T00:50:22.905Z,177.85
2023-07-15T00:51:22.920Z,179.33
2023-07-15T00:52:22.898Z,177.37
2023-07-15T00:53:22.872Z,176.16
2023-07-15T00:54:22.879Z,176.35
2023-07-15T00:55:22.877Z,172.75
2023-07-15T00:56:22.865Z,174.01
2023-07-15T00:57:22.890Z,174.81
2023-07-15T00:58:22.852Z,176.52
2023-07-15T00:59:22.850Z,173.29
2023-07-15T01:00:22.884Z,173.21
2023-07-15T01:01:22.897Z,171.43
2023-07-15T01:02:22.951Z,170.21
2023-07-15T01:03:23.002Z,169.58
2023-07-15T01:04:22.804Z,171.87
2023-07-15T01:05:22.830Z,173.31
2023-07-15T01:06:22.798Z,171.81
2023-07-15T01:07:22.839Z,175.21
2023-07-15T01:08:22.832Z,174.65
2023-07-15T01:09:22.833Z,174.84
2023-07-15T01:10:22.834Z,174.44
2023-07-15T01:11:22.838Z,171.94
2023-07-15T01:12:22.878Z,171.28
2023-07-15T01:13:22.808Z,172.02
2023-07-15T01:14:22.815Z,172.40
2023-07-15T01:15:22.820Z,172.09
2023-07-15T01:16:22.875Z,172.20
2023-07-15T01:17:22.859Z,172.21
2023-07-15T01:18:22.813Z,172.33
2023-07-15T01:19:22.783Z,170.62
2023-07-15T01:20:22.787Z,168.49
2023-07-15T01:21:22.816Z,167.26
2023-07-15T01:22:22.846Z,168.69
2023-07-15T01:23:22.828Z,168.33
2023-07-15T01:24:22.822Z,163.73
2023-07-15T01:25:22.830Z,166.74
2023-07-15T01:26:22.853Z,166.78
2023-07-15T01:27:22.862Z,165.87
2023-07-15T01:28:22.870Z,166.99
2023-07-15T01:29:22.861Z,167.94
2023-07-15T01:30:22.876Z,166.46
2023-07-15T01:31:22.916Z,162.10
2023-07-15T01:32:22.907Z,161.93
2023-07-15T01:33:22.903Z,162.05
2023-07-15T01:34:22.912Z,162.15
2023-07-15T01:35:22.908Z,162.82
2023-07-15T01:36:22.910Z,162.33
2023-07-15T01:37:22.919Z,163.40
2023-07-15T01:38:22.950Z,162.37
2023-07-15T01:39:22.950Z,163.58
2023-07-15T01:40:22.954Z,164.27
2023-07-15T01:41:22.959Z,164.99
2023-07-15T01:42:22.998Z,167.88
2023-07-15T01:43:23.020Z,167.92
2023-07-15T01:44:23.055Z,167.73
2023-07-15T01:45:23.024Z,168.36
2023-07-15T01:46:23.038Z,166.53
2023-07-15T01:47:23.053Z,165.61
2023-07-15T01:48:26.087Z,166.32
2023-07-15T01:49:23.073Z,166.36
2023-07-15T01:50:23.066Z,166.78
2023-07-15T01:51:23.074Z,166.77
2023-07-15T01:52:23.076Z,168.81
2023-07-15T01:53:23.108Z,169.00
2023-07-15T01:54:23.127Z,170.10
2023-07-15T01:55:23.120Z,170.77
2023-07-15T01:56:23.113Z,170.85
2023-07-15T01:57:23.119Z,171.49
2023-07-15T01:58:23.147Z,171.02
2023-07-15T01:59:23.157Z,173.21
2023-07-15T02:00:23.150Z,172.54
2023-07-15T02:01:23.236Z,175.97
2023-07-15T02:02:23.277Z,176.31
2023-07-15T02:03:23.242Z,176.33
2023-07-15T02:04:23.194Z,175.29
2023-07-15T02:05:23.196Z,176.57
2023-07-15T02:06:23.434Z,176.67
2023-07-15T02:07:23.200Z,178.89
2023-07-15T02:08:23.239Z,179.84
2023-07-15T02:09:23.243Z,181.51
2023-07-15T02:10:23.244Z,182.88
2023-07-15T02:11:23.243Z,182.77
2023-07-15T02:12:23.260Z,182.14
2023-07-15T02:13:23.265Z,180.47
2023-07-15T02:14:23.288Z,177.81
2023-07-15T02:15:23.264Z,176.35
2023-07-15T02:16:23.310Z,182.18
2023-07-15T02:17:23.321Z,177.65
2023-07-15T02:18:23.293Z,179.79
2023-07-15T02:19:23.323Z,182.26
2023-07-15T02:20:23.354Z,181.63
2023-07-15T02:21:23.376Z,182.48
2023-07-15T02:22:23.471Z,184.01
2023-07-15T02:23:23.428Z,182.17
2023-07-15T02:24:23.482Z,182.92
2023-07-15T02:25:23.501Z,183.59
2023-07-15T02:26:23.541Z,184.33
2023-07-15T02:27:23.555Z,186.20
2023-07-15T02:28:23.613Z,187.41
2023-07-15T02:29:23.614Z,184.80
2023-07-15T02:30:23.645Z,184.41
2023-07-15T02:31:23.738Z,183.96
2023-07-15T02:32:23.763Z,183.36
2023-07-15T02:33:23.720Z,189.66
2023-07-15T02:34:23.758Z,185.97
2023-07-15T02:35:23.790Z,185.66
2023-07-15T02:36:23.806Z,187.90
2023-07-15T02:37:23.848Z,184.06
2023-07-15T02:38:23.864Z,189.33
2023-07-15T02:39:23.914Z,186.65
2023-07-15T02:40:23.957Z,187.91
2023-07-15T02:41:23.964Z,185.24
2023-07-15T02:42:24.007Z,187.85
2023-07-15T02:43:24.008Z,187.02
2023-07-15T02:44:24.049Z,187.84
2023-07-15T02:45:24.071Z,187.48
2023-07-15T02:46:24.180Z,187.43
2023-07-15T02:47:24.202Z,192.43
2023-07-15T02:48:24.188Z,190.62
2023-07-15T02:49:24.216Z,191.01
2023-07-15T02:50:24.223Z,191.80
2023-07-15T02:51:24.255Z,192.36
2023-07-15T02:52:24.296Z,196.62
2023-07-15T02:53:24.296Z,193.12
2023-07-15T02:54:24.334Z,195.41
2023-07-15T02:55:24.330Z,192.44
2023-07-15T02:56:24.388Z,191.62
2023-07-15T02:57:24.406Z,193.81
2023-07-15T02:58:24.407Z,196.16
2023-07-15T02:59:24.445Z,191.19
2023-07-15T03:00:24.440Z,192.11
2023-07-15T03:01:24.470Z,194.58
2023-07-15T03:02:24.531Z,194.46
2023-07-15T03:03:24.498Z,194.16
2023-07-15T03:04:24.506Z,190.79
2023-07-15T03:05:24.592Z,192.02
2023-07-15T03:06:24.558Z,194.80
2023-07-15T03:07:24.545Z,194.94
2023-07-15T03:08:24.554Z,195.60
2023-07-15T03:09:24.561Z,195.10
2023-07-15T03:10:24.542Z,195.56
2023-07-15T03:11:24.537Z,199.56
2023-07-15T03:12:24.525Z,197.49
2023-07-15T03:13:24.519Z,196.30
2023-07-15T03:14:24.509Z,198.42
2023-07-15T03:15:24.518Z,195.79
2023-07-15T03:16:24.539Z,196.00
2023-07-15T03:17:24.570Z,196.28
2023-07-15T03:18:24.484Z,196.65
2023-07-15T03:19:24.495Z,198.85
2023-07-15T03:20:24.506Z,197.66
2023-07-15T03:21:24.482Z,203.30
2023-07-15T03:22:24.508Z,199.37
2023-07-15T03:23:24.476Z,199.81
2023-07-15T03:24:24.477Z,198.54
2023-07-15T03:25:24.465Z,197.34
2023-07-15T03:26:24.451Z,197.70
2023-07-15T03:27:24.465Z,200.96
2023-07-15T03:28:24.448Z,201.87
2023-07-15T03:29:24.435Z,197.96
2023-07-15T03:30:24.431Z,194.97
2023-07-15T03:31:24.447Z,196.62
2023-07-15T03:32:24.436Z,196.50
2023-07-15T03:33:24.508Z,199.65
2023-07-15T03:34:27.008Z,200.69
2023-07-15T03:35:24.389Z,200.77
2023-07-15T03:36:24.380Z,200.93
2023-07-15T03:37:24.378Z,201.12
2023-07-15T03:38:24.382Z,199.09
2023-07-15T03:39:24.366Z,198.77
2023-07-15T03:40:24.358Z,201.16
2023-07-15T03:41:24.353Z,201.53
2023-07-15T03:42:24.330Z,201.54
2023-07-15T03:43:24.334Z,199.48
2023-07-15T03:44:24.335Z,202.61
2023-07-15T03:45:24.324Z,200.41
2023-07-15T03:46:24.386Z,200.08
2023-07-15T03:47:24.417Z,200.72
2023-07-15T03:48:24.305Z,200.36
2023-07-15T03:49:24.310Z,200.00
2023-07-15T03:50:24.290Z,200.17
2023-07-15T03:51:24.277Z,200.48
2023-07-15T03:52:24.286Z,200.43
2023-07-15T03:53:24.285Z,200.97
2023-07-15T03:54:24.280Z,202.71
2023-07-15T03:55:24.290Z,203.65
2023-07-15T03:56:24.273Z,205.58
2023-07-15T03:57:24.261Z,205.22
2023-07-15T03:58:24.256Z,199.11
2023-07-15T03:59:24.256Z,202.88
2023-07-15T04:00:24.256Z,199.22
2023-07-15T04:01:24.337Z,200.35
2023-07-15T04:02:24.269Z,200.06
2023-07-15T04:03:24.268Z,201.80
2023-07-15T04:04:24.252Z,196.53
2023-07-15T04:05:24.232Z,199.82
2023-07-15T04:06:24.241Z,199.59
2023-07-15T04:07:24.236Z,196.51
2023-07-15T04:08:24.242Z,199.73
2023-07-15T04:09:24.238Z,198.65
2023-07-15T04:10:24.242Z,195.57
2023-07-15T04:11:24.237Z,197.13
2023-07-15T04:12:24.245Z,200.91
2023-07-15T04:13:24.298Z,201.10
2023-07-15T04:14:24.296Z,202.18
2023-07-15T04:15:24.323Z,198.13
2023-07-15T04:16:24.384Z,199.93
2023-07-15T04:17:24.396Z,199.59
2023-07-15T04:18:24.408Z,199.94
2023-07-15T04:19:24.428Z,200.69
2023-07-15T04:20:24.472Z,197.70
2023-07-15T04:21:24.495Z,197.46
2023-07-15T04:22:24.522Z,197.76
2023-07-15T04:23:24.474Z,198.47
2023-07-15T04:24:24.464Z,197.89
2023-07-15T04:25:24.471Z,198.84
2023-07-15T04:26:24.483Z,200.67
2023-07-15T04:27:24.497Z,200.24
2023-07-15T04:28:24.463Z,200.54
2023-07-15T04:29:24.486Z,200.08
2023-07-15T04:30:24.476Z,201.60
2023-07-15T04:31:24.507Z,197.10
2023-07-15T04:32:24.480Z,197.79
2023-07-15T04:33:24.448Z,197.98
2023-07-15T04:34:25.830Z,198.05
2023-07-15T04:35:24.441Z,196.40
2023-07-15T04:36:24.446Z,197.19
2023-07-15T04:37:24.435Z,197.66
2023-07-15T04:38:24.431Z,200.01
2023-07-15T04:39:24.426Z,198.98
2023-07-15T04:40:24.437Z,200.21
2023-07-15T04:41:24.425Z,196.12
2023-07-15T04:42:24.451Z,197.17
2023-07-15T04:43:24.495Z,200.00
2023-07-15T04:44:24.540Z,197.86
2023-07-15T04:45:24.561Z,195.90
2023-07-15T04:46:24.606Z,195.96
2023-07-15T04:47:24.588Z,196.32
2023-07-15T04:48:24.569Z,196.10
2023-07-15T04:49:24.547Z,197.65
2023-07-15T04:50:24.544Z,199.77
2023-07-15T04:51:24.561Z,200.14
2023-07-15T04:52:24.567Z,197.45
2023-07-15T04:53:24.575Z,198.13
2023-07-15T04:54:24.573Z,197.14
2023-07-15T04:55:24.585Z,198.76
2023-07-15T04:56:24.578Z,196.83
2023-07-15T04:57:24.566Z,196.59
2023-07-15T04:58:24.581Z,195.44
2023-07-15T04:59:24.584Z,195.97
2023-07-15T05:00:24.577Z,191.36
2023-07-15T05:01:24.621Z,193.13
2023-07-15T05:02:24.605Z,192.96
2023-07-15T05:03:24.606Z,194.51
2023-07-15T05:04:24.592Z,195.06
2023-07-15T05:05:24.597Z,193.51
2023-07-15T05:06:24.623Z,194.52
2023-07-15T05:07:24.675Z,196.46
2023-07-15T05:08:24.700Z,192.44
2023-07-15T05:09:24.755Z,198.19
2023-07-15T05:10:24.778Z,195.72
2023-07-15T05:11:24.803Z,194.68
2023-07-15T05:12:24.839Z,192.62
2023-07-15T05:13:24.866Z,194.93
2023-07-15T05:14:24.925Z,195.28
2023-07-15T05:15:25.009Z,197.56
2023-07-15T05:16:25.006Z,194.62
2023-07-15T05:17:25.022Z,194.74
2023-07-15T05:18:24.997Z,195.39
2023-07-15T05:19:25.018Z,194.73
2023-07-15T05:20:25.021Z,194.93
2023-07-15T05:21:25.034Z,199.96
2023-07-15T05:22:25.059Z,194.21
2023-07-15T05:23:25.058Z,192.55
2023-07-15T05:24:25.077Z,195.19
2023-07-15T05:25:25.079Z,194.51
2023-07-15T05:26:25.099Z,194.26
2023-07-15T05:27:25.112Z,197.28
2023-07-15T05:28:25.117Z,194.59
2023-07-15T05:29:25.143Z,195.50
2023-07-15T05:30:25.144Z,193.09
2023-07-15T05:31:25.227Z,193.18
2023-07-15T05:32:25.176Z,196.26
2023-07-15T05:33:25.140Z,199.29
2023-07-15T05:34:25.146Z,195.01
2023-07-15T05:35:25.144Z,194.85
2023-07-15T05:36:25.158Z,194.30
2023-07-15T05:37:25.151Z,196.66
2023-07-15T05:38:25.132Z,194.03
2023-07-15T05:39:25.133Z,194.10
2023-07-15T05:40:25.113Z,193.43
2023-07-15T05:41:25.122Z,193.65
2023-07-15T05:42:25.127Z,188.09
2023-07-15T05:43:25.116Z,189.48
2023-07-15T05:44:25.117Z,190.93
2023-07-15T05:45:25.116Z,186.28
2023-07-15T05:46:25.132Z,187.08
2023-07-15T05:47:25.103Z,185.16
2023-07-15T05:48:25.091Z,184.62
2023-07-15T05:49:25.117Z,185.53
2023-07-15T05:50:25.095Z,185.91
2023-07-15T05:51:25.065Z,181.53
2023-07-15T05:52:25.122Z,181.38
2023-07-15T05:53:25.057Z,185.84
2023-07-15T05:54:25.135Z,183.53
2023-07-15T05:55:25.034Z,183.59
2023-07-15T05:56:25.054Z,179.48
2023-07-15T05:57:25.089Z,178.53
2023-07-15T05:58:25.068Z,175.08
2023-07-15T05:59:25.091Z,175.83
2023-07-15T06:00:25.072Z,173.51
2023-07-15T06:01:25.088Z,173.95
2023-07-15T06:02:25.105Z,174.62
2023-07-15T06:03:25.130Z,175.79
2023-07-15T06:04:25.052Z,176.50
2023-07-15T06:05:25.047Z,173.92
2023-07-15T06:06:25.025Z,167.58
2023-07-15T06:07:25.023Z,171.60
2023-07-15T06:08:25.012Z,169.30
2023-07-15T06:09:25.032Z,164.62
2023-07-15T06:10:25.027Z,164.26
2023-07-15T06:11:24.996Z,163.41
2023-07-15T06:12:25.019Z,158.27
2023-07-15T06:13:26.221Z,156.55
2023-07-15T06:14:25.012Z,157.04
2023-07-15T06:15:24.970Z,146.08
2023-07-15T06:16:24.980Z,145.01
2023-07-15T06:17:25.066Z,141.99
2023-07-15T06:18:24.960Z,135.09
2023-07-15T06:19:24.956Z,134.37
2023-07-15T06:20:24.974Z,137.59
2023-07-15T06:21:24.932Z,133.72
2023-07-15T06:22:25.007Z,133.48
2023-07-15T06:23:24.938Z,131.19
2023-07-15T06:24:24.934Z,129.75
2023-07-15T06:25:24.919Z,129.33
2023-07-15T06:26:24.924Z,124.03
2023-07-15T06:27:24.922Z,119.85
2023-07-15T06:28:24.914Z,120.13
2023-07-15T06:29:24.918Z,121.40
2023-07-15T06:30:24.893Z,123.99
2023-07-15T06:31:25.058Z,124.61
2023-07-15T06:32:24.954Z,129.96
2023-07-15T06:33:24.897Z,127.43
2023-07-15T06:34:24.894Z,123.50
2023-07-15T06:35:24.876Z,119.58
2023-07-15T06:36:24.889Z,121.35
2023-07-15T06:37:24.899Z,120.93
2023-07-15T06:38:24.866Z,119.85
2023-07-15T06:39:24.903Z,118.59
2023-07-15T06:40:24.898Z,120.03
2023-07-15T06:41:24.866Z,127.92
2023-07-15T06:42:24.843Z,125.60
2023-07-15T06:43:24.840Z,125.15
2023-07-15T06:44:24.881Z,128.03
2023-07-15T06:45:24.899Z,131.71
2023-07-15T06:46:24.856Z,124.49
2023-07-15T06:47:24.859Z,118.89
2023-07-15T06:48:24.843Z,123.45
2023-07-15T06:49:24.845Z,123.63
2023-07-15T06:50:24.851Z,123.66
2023-07-15T06:51:24.833Z,123.62
2023-07-15T06:52:24.838Z,121.19
2023-07-15T06:53:24.823Z,115.29
2023-07-15T06:54:24.845Z,119.75
2023-07-15T06:55:24.845Z,113.81
2023-07-15T06:56:24.810Z,118.93
2023-07-15T06:57:24.810Z,119.05
2023-07-15T06:58:24.830Z,114.09
2023-07-15T06:59:24.817Z,109.18
2023-07-15T07:00:24.837Z,110.47
2023-07-15T07:01:24.829Z,108.92
2023-07-15T07:02:24.818Z,109.97
2023-07-15T07:03:24.797Z,103.37
2023-07-15T07:04:24.810Z,102.63
2023-07-15T07:05:24.851Z,95.83
2023-07-15T07:06:24.810Z,96.74
2023-07-15T07:07:24.848Z,98.96
2023-07-15T07:08:24.774Z,101.70
2023-07-15T07:09:24.779Z,105.44
2023-07-15T07:10:24.888Z,106.64
2023-07-15T07:11:24.770Z,109.85
2023-07-15T07:12:24.748Z,106.45
2023-07-15T07:13:24.741Z,106.56
2023-07-15T07:14:24.730Z,107.15
2023-07-15T07:15:24.746Z,106.75
2023-07-15T07:16:24.720Z,107.02
2023-07-15T07:17:24.720Z,107.84
2023-07-15T07:18:24.830Z,109.83
2023-07-15T07:19:24.722Z,108.85
2023-07-15T07:20:24.755Z,113.08
2023-07-15T07:21:24.693Z,110.94
2023-07-15T07:22:24.711Z,114.24
2023-07-15T07:23:24.678Z,114.98
2023-07-15T07:24:24.688Z,115.33
2023-07-15T07:25:24.664Z,112.00
2023-07-15T07:26:24.665Z,116.99
2023-07-15T07:27:24.651Z,117.15
2023-07-15T07:28:24.632Z,117.62
2023-07-15T07:29:24.648Z,117.92
2023-07-15T07:30:24.824Z,113.53
2023-07-15T07:31:24.690Z,117.20
2023-07-15T07:32:24.625Z,111.12
2023-07-15T07:33:24.591Z,116.87
2023-07-15T07:34:24.582Z,117.59
2023-07-15T07:35:24.577Z,120.96
2023-07-15T07:36:24.559Z,115.82
2023-07-15T07:37:24.557Z,115.86
2023-07-15T07:38:24.535Z,116.11
2023-07-15T07:39:24.536Z,116.87
2023-07-15T07:40:24.585Z,116.26
2023-07-15T07:41:24.511Z,116.35
2023-07-15T07:42:24.496Z,117.33
2023-07-15T07:43:24.482Z,118.47
2023-07-15T07:44:24.467Z,123.41
2023-07-15T07:45:24.466Z,127.48
2023-07-15T07:46:24.488Z,128.63
2023-07-15T07:47:24.472Z,131.20
2023-07-15T07:48:24.427Z,126.82
2023-07-15T07:49:24.415Z,127.10
2023-07-15T07:50:24.464Z,123.59
2023-07-15T07:51:24.458Z,124.37
2023-07-15T07:52:24.525Z,126.69
2023-07-15T07:53:24.564Z,124.74
2023-07-15T07:54:24.607Z,128.22
2023-07-15T07:55:24.668Z,127.79
2023-07-15T07:56:24.758Z,125.02
2023-07-15T07:57:24.794Z,124.88
2023-07-15T07:58:24.840Z,126.78
2023-07-15T07:59:24.919Z,130.44
2023-07-15T08:00:24.959Z,130.14
2023-07-15T08:01:25.037Z,131.48
2023-07-15T08:02:25.145Z,131.84
2023-07-15T08:03:25.278Z,129.77
2023-07-15T08:04:25.233Z,129.13
2023-07-15T08:05:25.270Z,127.95
2023-07-15T08:06:25.341Z,127.47
2023-07-15T08:07:25.345Z,128.48
2023-07-15T08:08:25.411Z,128.04
2023-07-15T08:09:25.451Z,128.22
2023-07-15T08:10:25.514Z,121.41
2023-07-15T08:11:25.556Z,123.48
2023-07-15T08:12:25.660Z,126.53
2023-07-15T08:13:25.670Z,125.31
2023-07-15T08:14:25.739Z,122.65
2023-07-15T08:15:25.805Z,119.25
2023-07-15T08:16:25.934Z,115.07
2023-07-15T08:17:25.924Z,113.06
2023-07-15T08:18:25.948Z,118.41
2023-07-15T08:19:25.941Z,118.68
2023-07-15T08:20:25.940Z,119.50
2023-07-15T08:21:25.930Z,120.26
2023-07-15T08:22:26.024Z,122.26
2023-07-15T08:23:25.918Z,124.51
2023-07-15T08:24:25.920Z,121.54
2023-07-15T08:25:25.900Z,118.74
2023-07-15T08:26:25.913Z,111.36
2023-07-15T08:27:25.890Z,114.37
2023-07-15T08:28:25.940Z,121.43
2023-07-15T08:29:26.008Z,124.71
2023-07-15T08:30:26.057Z,123.38
2023-07-15T08:31:26.112Z,117.08
2023-07-15T08:32:26.256Z,113.39
2023-07-15T08:33:26.192Z,113.72
2023-07-15T08:34:26.200Z,113.78
2023-07-15T08:35:26.205Z,114.08
2023-07-15T08:36:26.177Z,111.24
2023-07-15T08:37:26.280Z,107.05
2023-07-15T08:38:26.178Z,107.48
2023-07-15T08:39:26.171Z,107.87
2023-07-15T08:40:26.170Z,107.16
2023-07-15T08:41:26.222Z,107.34
2023-07-15T08:42:26.147Z,107.42
2023-07-15T08:43:26.122Z,108.03
2023-07-15T08:44:26.129Z,107.35
2023-07-15T08:45:26.109Z,108.41
2023-07-15T08:46:26.138Z,107.25
2023-07-15T08:47:26.121Z,107.66
2023-07-15T08:48:26.093Z,103.16
2023-07-15T08:49:26.072Z,110.87
2023-07-15T08:50:26.062Z,107.34
2023-07-15T08:51:26.110Z,111.74
2023-07-15T08:52:26.097Z,107.78
2023-07-15T08:53:26.051Z,108.63
2023-07-15T08:54:26.032Z,108.80
2023-07-15T08:55:26.048Z,108.49
2023-07-15T08:56:26.099Z,107.97
2023-07-15T08:57:26.203Z,108.10
2023-07-15T08:58:26.192Z,105.46
2023-07-15T08:59:26.244Z,104.25
2023-07-15T09:00:26.286Z,100.76
2023-07-15T09:01:26.451Z,104.74
2023-07-15T09:02:26.415Z,105.81
2023-07-15T09:03:26.472Z,105.58
2023-07-15T09:04:26.697Z,105.99
2023-07-15T09:05:26.523Z,105.33
2023-07-15T09:06:26.505Z,105.59
2023-07-15T09:07:26.500Z,105.35
2023-07-15T09:08:26.483Z,106.49
2023-07-15T09:09:26.493Z,109.97
2023-07-15T09:10:26.461Z,108.95
2023-07-15T09:11:26.428Z,112.37
2023-07-15T09:12:26.434Z,110.82
2023-07-15T09:13:26.437Z,110.80
2023-07-15T09:14:26.412Z,108.00
2023-07-15T09:15:26.400Z,105.01
2023-07-15T09:16:26.456Z,103.45
2023-07-15T09:17:26.737Z,102.91
2023-07-15T09:18:26.513Z,96.49
2023-07-15T09:19:26.539Z,97.14
2023-07-15T09:20:26.626Z,89.21
2023-07-15T09:21:26.591Z,89.25
2023-07-15T09:22:26.624Z,89.30
2023-07-15T09:23:26.560Z,80.22
2023-07-15T09:24:26.565Z,60.61
2023-07-15T09:25:26.581Z,49.56
2023-07-15T09:26:27.991Z,16.05
2023-07-15T09:27:26.489Z,26.64
2023-07-15T09:28:26.495Z,26.57
2023-07-15T09:29:26.490Z,21.61
2023-07-15T09:30:26.463Z,18.70
2023-07-15T09:31:26.589Z,7.06
2023-07-15T09:32:26.492Z,1.06
2023-07-15T09:33:26.437Z,0.00
2023-07-15T09:34:26.421Z,17.63
2023-07-15T09:35:26.407Z,28.60
2023-07-15T09:36:26.402Z,32.51
2023-07-15T09:37:26.402Z,32.27
2023-07-15T09:38:26.396Z,25.51
2023-07-15T09:39:26.392Z,27.68
2023-07-15T09:40:26.423Z,25.00
2023-07-15T09:41:26.461Z,27.77
2023-07-15T09:42:26.504Z,29.74
2023-07-15T09:43:26.546Z,27.77
2023-07-15T09:44:26.586Z,31.92
2023-07-15T09:45:26.608Z,26.86
2023-07-15T09:46:26.703Z,28.33
2023-07-15T09:47:26.753Z,25.00
2023-07-15T09:48:26.728Z,28.00
2023-07-15T09:49:26.757Z,30.77
2023-07-15T09:50:26.809Z,31.05
2023-07-15T09:51:26.813Z,29.83
2023-07-15T09:52:26.799Z,30.02
2023-07-15T09:53:26.788Z,31.44
2023-07-15T09:54:26.804Z,33.40
2023-07-15T09:55:26.768Z,37.45
2023-07-15T09:56:26.768Z,40.15
2023-07-15T09:57:26.748Z,38.43
2023-07-15T09:58:26.734Z,39.21
2023-07-15T09:59:26.731Z,44.92
2023-07-15T10:00:26.709Z,45.02
2023-07-15T10:01:26.763Z,46.08
2023-07-15T10:02:28.743Z,45.01
2023-07-15T10:03:26.712Z,53.49
2023-07-15T10:04:26.831Z,53.63
2023-07-15T10:05:26.770Z,56.80
2023-07-15T10:06:26.807Z,55.00
2023-07-15T10:07:26.840Z,53.97
2023-07-15T10:08:26.865Z,55.86
2023-07-15T10:09:26.903Z,63.45
2023-07-15T10:10:26.925Z,65.06
2023-07-15T10:11:26.983Z,67.65
2023-07-15T10:12:27.053Z,70.59
2023-07-15T10:13:27.034Z,70.22
2023-07-15T10:14:27.078Z,73.41
2023-07-15T10:15:27.126Z,73.33
2023-07-15T10:16:27.159Z,79.09
2023-07-15T10:17:27.159Z,79.61
2023-07-15T10:18:27.139Z,79.83
2023-07-15T10:19:27.117Z,80.59
2023-07-15T10:20:27.111Z,83.67
2023-07-15T10:21:27.083Z,87.45
2023-07-15T10:22:27.086Z,95.61
2023-07-15T10:23:27.044Z,96.92
2023-07-15T10:24:27.028Z,103.93
2023-07-15T10:25:27.013Z,103.11
2023-07-15T10:26:26.996Z,107.97
2023-07-15T10:27:26.983Z,109.33
2023-07-15T10:28:26.971Z,110.50
2023-07-15T10:29:26.997Z,110.89
2023-07-15T10:30:27.031Z,109.39
2023-07-15T10:31:27.382Z,111.39
2023-07-15T10:32:27.112Z,111.71
2023-07-15T10:33:26.996Z,113.27
2023-07-15T10:34:26.974Z,116.52
2023-07-15T10:35:26.977Z,122.97
2023-07-15T10:36:26.970Z,137.09
2023-07-15T10:37:26.969Z,139.82
2023-07-15T10:38:26.990Z,141.56
2023-07-15T10:39:26.964Z,148.02
2023-07-15T10:40:26.977Z,148.64
2023-07-15T10:41:26.951Z,148.48
2023-07-15T10:42:26.945Z,148.32
2023-07-15T10:43:29.422Z,148.51
2023-07-15T10:44:26.952Z,148.50
2023-07-15T10:45:26.941Z,149.77
2023-07-15T10:46:27.001Z,151.72
2023-07-15T10:47:26.959Z,148.88
2023-07-15T10:48:26.908Z,150.74
2023-07-15T10:49:26.901Z,154.30
2023-07-15T10:50:26.899Z,163.22
2023-07-15T10:51:26.879Z,170.99
2023-07-15T10:52:26.870Z,176.11
2023-07-15T10:53:26.864Z,177.50
2023-07-15T10:54:26.861Z,184.59
2023-07-15T10:55:26.866Z,185.79
2023-07-15T10:56:26.840Z,185.29
2023-07-15T10:57:32.854Z,186.41
2023-07-15T10:58:27.825Z,186.54
2023-07-15T10:59:26.820Z,187.22
2023-07-15T11:00:26.806Z,188.03
2023-07-15T11:01:26.996Z,191.11
2023-07-15T11:02:26.810Z,194.53
2023-07-15T11:03:26.804Z,196.58
2023-07-15T11:04:26.845Z,195.27
2023-07-15T11:05:26.785Z,199.14
2023-07-15T11:06:26.924Z,202.16
2023-07-15T11:07:26.773Z,196.11
2023-07-15T11:08:26.777Z,196.17
2023-07-15T11:09:26.771Z,199.53
2023-07-15T11:10:26.760Z,198.10
2023-07-15T11:11:26.766Z,202.24
2023-07-15T11:12:26.762Z,198.52
2023-07-15T11:13:26.753Z,196.01
2023-07-15T11:14:26.732Z,199.57
2023-07-15T11:15:26.755Z,195.64
2023-07-15T11:16:26.790Z,195.80
2023-07-15T11:17:26.935Z,196.03
2023-07-15T11:18:26.696Z,196.30
2023-07-15T11:19:26.689Z,197.83
2023-07-15T11:20:26.686Z,196.03
2023-07-15T11:21:26.687Z,201.63
2023-07-15T11:22:26.677Z,199.81
2023-07-15T11:23:26.661Z,199.65
2023-07-15T11:24:26.604Z,192.46
2023-07-15T11:25:26.607Z,195.24
2023-07-15T11:26:26.604Z,194.66
2023-07-15T11:27:26.574Z,198.48
2023-07-15T11:28:26.563Z,199.80
2023-07-15T11:29:26.550Z,192.26
2023-07-15T11:30:26.510Z,187.56
2023-07-15T11:31:26.617Z,194.03
2023-07-15T11:32:26.502Z,186.16
2023-07-15T11:33:26.490Z,190.52
2023-07-15T11:34:26.535Z,193.17
2023-07-15T11:35:26.550Z,187.90
2023-07-15T11:36:26.548Z,181.30
2023-07-15T11:37:26.556Z,168.22
2023-07-15T11:38:26.575Z,174.10
2023-07-15T11:39:26.591Z,185.69
2023-07-15T11:40:26.596Z,177.64
2023-07-15T11:41:26.642Z,182.42
2023-07-15T11:42:26.609Z,182.11
2023-07-15T11:43:26.673Z,176.81
2023-07-15T11:44:26.634Z,178.40
2023-07-15T11:45:26.651Z,176.12
2023-07-15T11:46:26.678Z,178.37
2023-07-15T11:47:26.728Z,180.56
2023-07-15T11:48:26.671Z,173.82
2023-07-15T11:49:26.691Z,180.22
2023-07-15T11:50:26.680Z,182.74
2023-07-15T11:51:29.678Z,176.66
2023-07-15T11:52:26.677Z,174.59
2023-07-15T11:53:26.665Z,169.86
2023-07-15T11:54:26.659Z,177.29
2023-07-15T11:55:26.665Z,178.29
2023-07-15T11:56:26.623Z,178.14
2023-07-15T11:57:26.616Z,181.99
2023-07-15T11:58:26.592Z,177.84
2023-07-15T11:59:26.573Z,175.44
2023-07-15T12:00:39.765Z,176.43
2023-07-15T12:01:27.592Z,175.76
2023-07-15T12:02:29.235Z,174.50
2023-07-15T12:03:26.501Z,176.64
2023-07-15T12:04:26.535Z,176.86
2023-07-15T12:05:26.464Z,178.46
2023-07-15T12:06:26.456Z,176.97
2023-07-15T12:07:26.434Z,179.05
2023-07-15T12:08:26.408Z,182.06
2023-07-15T12:09:26.402Z,186.03
2023-07-15T12:10:26.391Z,191.81
2023-07-15T12:11:26.368Z,184.89
2023-07-15T12:12:26.351Z,176.71
2023-07-15T12:13:26.345Z,179.84
2023-07-15T12:14:26.319Z,179.93
2023-07-15T12:15:26.291Z,180.90
2023-07-15T12:16:26.349Z,184.55
2023-07-15T12:17:26.294Z,180.54
2023-07-15T12:18:26.235Z,182.44
2023-07-15T12:19:26.222Z,180.48
2023-07-15T12:20:26.189Z,180.19
2023-07-15T12:21:26.183Z,175.31
2023-07-15T12:22:26.197Z,172.17
2023-07-15T12:23:26.153Z,177.01
2023-07-15T12:24:26.133Z,185.58
2023-07-15T12:25:26.115Z,185.92
2023-07-15T12:26:26.093Z,186.01
2023-07-15T12:27:26.082Z,186.41
2023-07-15T12:28:26.062Z,186.33
2023-07-15T12:29:26.041Z,192.43
2023-07-15T12:30:26.037Z,195.55